Time,TemperatureF,DewpointF,PressureIn,WindDirection,WindDirectionDegrees,WindSpeedMPH,WindSpeedGustMPH,Humidity,HourlyPrecipIn,Conditions,Clouds,dailyrainin,SoftwareType,DateUTC
2013-01-01 00:31:00,35.8,19.0,30.23,North,9,4.0,5.0,50,0.00,,,0.00,weatherlink.com 1.10,2013-01-01 05:31:00,
2013-01-01 00:46:00,36.4,17.0,30.23,North,355,6.0,7.0,45,0.00,,,0.00,weatherlink.com 1.10,2013-01-01 05:46:00,
2013-01-01 01:01:00,36.1,16.0,30.23,North,360,7.0,8.0,45,0.00,,,0.00,weatherlink.com 1.10,2013-01-01 06:01:00,
2013-01-01 01:16:00,35.7,15.0,30.22,NNE,19,6.0,11.0,43,0.00,,,0.00,weatherlink.com 1.10,2013-01-01 06:16:00,
2013-01-01 01:31:00,35.2,17.0,30.21,North,5,6.0,9.0,47,0.00,,,0.00,weatherlink.com 1.10,2013-01-01 06:31:00,
2013-01-01 01:46:00,34.8,17.0,30.21,NNE,22,6.0,9.0,48,0.00,,,0.00,weatherlink.com 1.10,2013-01-01 06:46:00,
2013-01-01 02:01:00,34.5,18.0,30.21,North,355,9.0,13.0,51,0.00,,,0.00,weatherlink.com 1.10,2013-01-01 07:01:00,
2013-01-01 02:17:00,34.4,19.0,30.21,NNE,12,4.0,11.0,54,0.00,,,0.00,weatherlink.com 1.10,2013-01-01 07:17:00,
2013-01-01 02:32:00,34.7,21.0,30.21,North,351,9.0,11.0,58,0.00,,,0.00,weatherlink.com 1.10,2013-01-01 07:32:00,
2013-01-01 02:47:00,35.4,21.0,30.20,NNE,19,5.0,12.0,56,0.00,,,0.00,weatherlink.com 1.10,2013-01-01 07:47:00,
2013-01-01 03:02:00,34.6,20.0,30.21,NNE,15,9.0,11.0,56,0.00,,,0.00,weatherlink.com 1.10,2013-01-01 08:02:00,
2013-01-01 03:18:00,34.8,20.0,30.20,North,349,7.0,12.0,55,0.00,,,0.00,weatherlink.com 1.10,2013-01-01 08:18:00,
2013-01-01 03:32:00,35.2,20.0,30.20,NNW,346,9.0,12.0,55,0.00,,,0.00,weatherlink.com 1.10,2013-01-01 08:32:00,
2013-01-01 03:47:00,35.9,20.0,30.20,North,9,8.0,11.0,53,0.00,,,0.00,weatherlink.com 1.10,2013-01-01 08:47:00,
2013-01-01 04:02:00,35.9,20.0,30.19,North,11,7.0,10.0,53,0.00,,,0.00,weatherlink.com 1.10,2013-01-01 09:02:00,
2013-01-01 04:17:00,35.8,20.0,30.20,North,350,8.0,13.0,54,0.00,,,0.00,weatherlink.com 1.10,2013-01-01 09:17:00,
2013-01-01 04:32:00,35.9,21.0,30.19,NNE,15,11.0,14.0,55,0.00,,,0.00,weatherlink.com 1.10,2013-01-01 09:32:00,
2013-01-01 04:47:00,36.1,22.0,30.19,NNE,12,9.0,13.0,56,0.00,,,0.00,weatherlink.com 1.10,2013-01-01 09:47:00,
2013-01-01 05:02:00,36.3,22.0,30.18,North,5,6.0,14.0,56,0.00,,,0.00,weatherlink.com 1.10,2013-01-01 10:02:00,
2013-01-01 05:32:00,36.8,23.0,30.18,ENE,63,3.0,13.0,58,0.00,,,0.00,weatherlink.com 1.10,2013-01-01 10:32:00,
2013-01-01 05:47:00,36.8,26.0,30.19,ENE,78,4.0,17.0,65,0.00,,,0.00,weatherlink.com 1.10,2013-01-01 10:47:00,
2013-01-01 06:02:00,38.3,30.0,30.19,NNW,338,8.0,13.0,71,0.00,,,0.00,weatherlink.com 1.10,2013-01-01 11:02:00,
2013-01-01 06:17:00,41.8,39.0,30.19,NNE,32,4.0,19.0,88,0.00,,,0.00,weatherlink.com 1.10,2013-01-01 11:17:00,
2013-01-01 06:32:00,45.6,41.0,30.19,WSW,256,8.0,16.0,85,0.00,,,0.00,weatherlink.com 1.10,2013-01-01 11:32:00,
2013-01-01 06:47:00,44.1,37.0,30.20,SSE,161,1.0,11.0,76,0.01,,,0.01,weatherlink.com 1.10,2013-01-01 11:47:00,
2013-01-01 07:02:00,38.8,35.0,30.20,North,10,1.0,7.0,87,0.01,,,0.01,weatherlink.com 1.10,2013-01-01 12:02:00,
2013-01-01 07:17:00,38.4,36.0,30.19,NNE,29,5.0,7.0,91,0.01,,,0.01,weatherlink.com 1.10,2013-01-01 12:17:00,
2013-01-01 07:32:00,38.4,36.0,30.19,North,351,0.0,10.0,92,0.01,,,0.01,weatherlink.com 1.10,2013-01-01 12:32:00,
2013-01-01 07:47:00,41.0,39.0,30.19,WNW,302,2.0,7.0,93,0.00,,,0.01,weatherlink.com 1.10,2013-01-01 12:47:00,
2013-01-01 08:02:00,44.4,42.0,30.20,WSW,256,4.0,13.0,91,0.00,,,0.01,weatherlink.com 1.10,2013-01-01 13:02:00,
2013-01-01 08:17:00,45.7,42.0,30.20,West,267,2.0,18.0,88,0.00,,,0.01,weatherlink.com 1.10,2013-01-01 13:17:00,
2013-01-01 08:32:00,44.9,40.0,30.21,WSW,244,3.0,13.0,84,0.00,,,0.01,weatherlink.com 1.10,2013-01-01 13:32:00,
2013-01-01 08:47:00,46.8,43.0,30.19,SW,225,22.0,24.0,87,0.01,,,0.02,weatherlink.com 1.10,2013-01-01 13:47:00,
2013-01-01 09:02:00,46.7,43.0,30.19,SW,225,10.0,28.0,86,0.02,,,0.03,weatherlink.com 1.10,2013-01-01 14:02:00,
2013-01-01 09:17:00,48.4,43.0,30.17,WNW,283,13.0,30.0,80,0.03,,,0.04,weatherlink.com 1.10,2013-01-01 14:17:00,
2013-01-01 09:32:00,48.7,42.0,30.18,NW,311,9.0,24.0,79,0.03,,,0.04,weatherlink.com 1.10,2013-01-01 14:32:00,
2013-01-01 09:47:00,48.5,43.0,30.17,SW,227,14.0,31.0,80,0.03,,,0.05,weatherlink.com 1.10,2013-01-01 14:47:00,
2013-01-01 10:02:00,48.0,42.0,30.17,WSW,252,5.0,23.0,80,0.03,,,0.06,weatherlink.com 1.10,2013-01-01 15:02:00,
2013-01-01 10:17:00,47.6,42.0,30.16,SW,227,9.0,31.0,81,0.02,,,0.06,weatherlink.com 1.10,2013-01-01 15:17:00,
2013-01-01 10:32:00,48.6,41.0,30.16,SW,221,9.0,27.0,75,0.03,,,0.07,weatherlink.com 1.10,2013-01-01 15:32:00,
2013-01-01 10:47:00,49.3,41.0,30.15,WSW,245,8.0,29.0,74,0.02,,,0.07,weatherlink.com 1.10,2013-01-01 15:47:00,
2013-01-01 11:02:00,49.8,41.0,30.16,SSW,206,7.0,28.0,72,0.01,,,0.07,weatherlink.com 1.10,2013-01-01 16:02:00,
2013-01-01 11:17:00,48.4,42.0,30.14,NW,305,2.0,28.0,78,0.02,,,0.08,weatherlink.com 1.10,2013-01-01 16:17:00,
2013-01-01 11:32:00,47.4,42.0,30.14,NNW,331,7.0,20.0,82,0.01,,,0.08,weatherlink.com 1.10,2013-01-01 16:32:00,
2013-01-01 11:47:00,46.6,42.0,30.14,NW,309,4.0,16.0,84,0.02,,,0.09,weatherlink.com 1.10,2013-01-01 16:47:00,
2013-01-01 12:02:00,46.4,42.0,30.14,WNW,286,8.0,19.0,85,0.03,,,0.10,weatherlink.com 1.10,2013-01-01 17:02:00,
2013-01-01 12:18:00,46.0,42.0,30.13,NW,309,8.0,21.0,86,0.04,,,0.12,weatherlink.com 1.10,2013-01-01 17:18:00,
2013-01-01 12:32:00,46.9,42.0,30.11,SW,233,7.0,17.0,84,0.04,,,0.12,weatherlink.com 1.10,2013-01-01 17:32:00,
2013-01-01 12:47:00,47.6,42.0,30.10,West,271,10.0,28.0,82,0.03,,,0.12,weatherlink.com 1.10,2013-01-01 17:47:00,
2013-01-01 13:02:00,48.6,43.0,30.09,SW,219,7.0,19.0,80,0.03,,,0.13,weatherlink.com 1.10,2013-01-01 18:02:00,
2013-01-01 13:17:00,46.1,42.0,30.08,NE,55,5.0,15.0,85,0.01,,,0.13,weatherlink.com 1.10,2013-01-01 18:17:00,
2013-01-01 13:32:00,44.3,42.0,30.09,NE,36,6.0,8.0,90,0.01,,,0.13,weatherlink.com 1.10,2013-01-01 18:32:00,
2013-01-01 13:47:00,46.0,43.0,30.10,SW,221,5.0,7.0,88,0.01,,,0.13,weatherlink.com 1.10,2013-01-01 18:47:00,
2013-01-01 14:02:00,44.5,42.0,30.09,SSW,211,2.0,8.0,91,0.00,,,0.13,weatherlink.com 1.10,2013-01-01 19:02:00,
2013-01-01 14:17:00,44.5,42.0,30.08,SSW,196,5.0,7.0,91,0.00,,,0.13,weatherlink.com 1.10,2013-01-01 19:17:00,
2013-01-01 14:32:00,44.9,43.0,30.08,North,360,1.0,8.0,91,0.00,,,0.13,weatherlink.com 1.10,2013-01-01 19:32:00,
2013-01-01 14:47:00,44.9,42.0,30.09,SSE,153,1.0,7.0,90,0.00,,,0.13,weatherlink.com 1.10,2013-01-01 19:47:00,
2013-01-01 15:02:00,45.1,42.0,30.08,WNW,302,6.0,9.0,89,0.00,,,0.13,weatherlink.com 1.10,2013-01-01 20:02:00,
2013-01-01 15:18:00,47.7,41.0,30.08,SSW,192,4.0,14.0,77,0.00,,,0.13,weatherlink.com 1.10,2013-01-01 20:18:00,
2013-01-01 15:33:00,47.8,41.0,30.09,SW,216,4.0,17.0,76,0.00,,,0.13,weatherlink.com 1.10,2013-01-01 20:33:00,
2013-01-01 15:48:00,47.4,41.0,30.09,SW,223,2.0,16.0,77,0.00,,,0.13,weatherlink.com 1.10,2013-01-01 20:48:00,
2013-01-01 16:03:00,46.7,41.0,30.09,WNW,284,9.0,13.0,80,0.00,,,0.13,weatherlink.com 1.10,2013-01-01 21:03:00,
2013-01-01 16:18:00,46.2,41.0,30.09,WNW,294,7.0,18.0,82,0.01,,,0.14,weatherlink.com 1.10,2013-01-01 21:18:00,
2013-01-01 16:33:00,45.3,41.0,30.10,NW,311,7.0,23.0,85,0.01,,,0.14,weatherlink.com 1.10,2013-01-01 21:33:00,
2013-01-01 16:48:00,45.2,41.0,30.09,NNW,328,11.0,19.0,84,0.02,,,0.15,weatherlink.com 1.10,2013-01-01 21:48:00,
2013-01-01 17:03:00,45.1,41.0,30.09,West,260,5.0,13.0,85,0.01,,,0.15,weatherlink.com 1.10,2013-01-01 22:03:00,
2013-01-01 17:17:00,44.8,41.0,30.09,West,271,6.0,12.0,86,0.01,,,0.15,weatherlink.com 1.10,2013-01-01 22:17:00,
2013-01-01 17:32:00,44.7,41.0,30.09,WSW,257,10.0,13.0,86,0.02,,,0.16,weatherlink.com 1.10,2013-01-01 22:32:00,
2013-01-01 17:47:00,44.7,41.0,30.08,WNW,300,2.0,11.0,85,0.01,,,0.16,weatherlink.com 1.10,2013-01-01 22:47:00,
2013-01-01 18:02:00,44.7,41.0,30.09,SSE,153,1.0,9.0,85,0.01,,,0.16,weatherlink.com 1.10,2013-01-01 23:02:00,
2013-01-01 18:18:00,44.6,40.0,30.09,WSW,254,1.0,7.0,85,0.01,,,0.16,weatherlink.com 1.10,2013-01-01 23:18:00,
2013-01-01 18:33:00,44.2,41.0,30.09,West,265,0.0,12.0,87,0.00,,,0.16,weatherlink.com 1.10,2013-01-01 23:33:00,
2013-01-01 18:48:00,44.5,40.0,30.09,West,273,5.0,18.0,84,0.00,,,0.16,weatherlink.com 1.10,2013-01-01 23:48:00,
2013-01-01 19:18:00,44.2,40.0,30.09,South,186,2.0,6.0,86,0.00,,,0.16,weatherlink.com 1.10,2013-01-02 00:18:00,
2013-01-01 19:33:00,44.2,40.0,30.08,NNE,27,1.0,16.0,86,0.01,,,0.17,weatherlink.com 1.10,2013-01-02 00:33:00,
2013-01-01 19:48:00,43.8,41.0,30.10,SSW,192,0.0,4.0,88,0.01,,,0.17,weatherlink.com 1.10,2013-01-02 00:48:00,
2013-01-01 20:03:00,43.8,41.0,30.11,NNW,340,0.0,7.0,88,0.01,,,0.17,weatherlink.com 1.10,2013-01-02 01:03:00,
2013-01-01 20:18:00,42.8,40.0,30.10,NE,37,3.0,4.0,90,0.01,,,0.17,weatherlink.com 1.10,2013-01-02 01:18:00,
2013-01-01 20:33:00,41.4,39.0,30.10,NNE,19,2.0,5.0,91,0.01,,,0.18,weatherlink.com 1.10,2013-01-02 01:33:00,
2013-01-01 20:48:00,40.7,39.0,30.09,NE,55,2.0,5.0,92,0.01,,,0.18,weatherlink.com 1.10,2013-01-02 01:48:00,
2013-01-01 21:03:00,40.4,39.0,30.09,NNE,26,4.0,6.0,93,0.01,,,0.18,weatherlink.com 1.10,2013-01-02 02:03:00,
2013-01-01 21:18:00,40.3,39.0,30.08,NNE,29,2.0,4.0,93,0.01,,,0.18,weatherlink.com 1.10,2013-01-02 02:18:00,
2013-01-01 21:33:00,40.3,39.0,30.09,NNE,15,1.0,4.0,93,0.02,,,0.20,weatherlink.com 1.10,2013-01-02 02:33:00,
2013-01-01 21:48:00,40.2,38.0,30.09,NNE,13,0.0,4.0,93,0.04,,,0.22,weatherlink.com 1.10,2013-01-02 02:48:00,
2013-01-01 22:03:00,40.3,39.0,30.09,NNE,19,3.0,4.0,94,0.05,,,0.23,weatherlink.com 1.10,2013-01-02 03:03:00,
2013-01-01 22:17:00,40.3,39.0,30.09,NNE,14,2.0,4.0,94,0.06,,,0.24,weatherlink.com 1.10,2013-01-02 03:17:00,
2013-01-01 22:32:00,40.4,39.0,30.09,ENE,61,2.0,5.0,94,0.04,,,0.24,weatherlink.com 1.10,2013-01-02 03:32:00,
2013-01-01 22:48:00,40.1,39.0,30.08,NNE,18,2.0,5.0,94,0.03,,,0.25,weatherlink.com 1.10,2013-01-02 03:48:00,
2013-01-01 23:02:00,40.2,39.0,30.08,ENE,78,1.0,6.0,94,0.01,,,0.25,weatherlink.com 1.10,2013-01-02 04:02:00,
2013-01-01 23:18:00,40.4,39.0,30.07,ENE,69,2.0,5.0,94,0.01,,,0.25,weatherlink.com 1.10,2013-01-02 04:18:00,
2013-01-01 23:34:00,40.9,39.0,30.07,North,355,2.0,13.0,94,0.01,,,0.25,weatherlink.com 1.10,2013-01-02 04:34:00,
2013-01-01 23:48:00,40.6,39.0,30.07,North,355,2.0,4.0,93,0.00,,,0.25,weatherlink.com 1.10,2013-01-02 04:48:00,